createdAt,value
2023-01-29T05:15:28.630Z,-0.18
2023-01-29T05:16:28.631Z,-0.19
2023-01-29T05:17:28.597Z,-0.19
2023-01-29T05:18:28.600Z,-0.24
2023-01-29T05:19:28.567Z,-0.23
2023-01-29T05:20:28.566Z,-0.19
2023-01-29T05:21:28.566Z,-0.15
2023-01-29T05:22:28.550Z,-0.15
2023-01-29T05:23:28.527Z,-0.15
2023-01-29T05:24:28.552Z,-0.12
2023-01-29T05:25:28.495Z,-0.13
2023-01-29T05:26:28.497Z,-0.15
2023-01-29T05:27:28.483Z,-0.15
2023-01-29T05:28:28.479Z,-0.12
2023-01-29T05:29:28.448Z,-0.11
2023-01-29T05:30:28.445Z,-0.11
2023-01-29T05:31:28.496Z,-0.09
2023-01-29T05:32:28.414Z,-0.11
2023-01-29T05:33:35.596Z,-0.12
2023-01-29T05:34:28.397Z,-0.09
2023-01-29T05:35:28.383Z,-0.06
2023-01-29T05:36:28.382Z,-0.08
2023-01-29T05:37:28.350Z,-0.06
2023-01-29T05:38:28.347Z,-0.06
2023-01-29T05:39:28.326Z,-0.06
2023-01-29T05:40:28.315Z,-0.05
2023-01-29T05:41:28.316Z,-0.04
2023-01-29T05:42:28.286Z,-0.01
2023-01-29T05:43:28.279Z,0.02
2023-01-29T05:44:28.264Z,0.02
2023-01-29T05:45:28.246Z,0.03
2023-01-29T05:46:28.279Z,0.05
2023-01-29T05:47:28.222Z,0.02
2023-01-29T05:48:28.354Z,0.00
2023-01-29T05:49:28.199Z,0.03
2023-01-29T05:50:28.238Z,0.03
2023-01-29T05:51:28.183Z,0.03
2023-01-29T05:52:28.165Z,0.02
2023-01-29T05:53:28.143Z,0.03
2023-01-29T05:54:28.156Z,0.03
2023-01-29T05:55:28.121Z,0.06
2023-01-29T05:56:28.127Z,0.07
2023-01-29T05:57:28.098Z,0.09
2023-01-29T05:58:28.133Z,0.09
2023-01-29T05:59:28.061Z,0.10
2023-01-29T06:00:28.062Z,0.09
2023-01-29T06:01:28.075Z,0.10
2023-01-29T06:02:28.031Z,0.10
2023-01-29T06:03:28.021Z,0.10
2023-01-29T06:04:28.061Z,0.15
2023-01-29T06:05:27.994Z,0.15
2023-01-29T06:06:28.001Z,0.15
2023-01-29T06:07:27.971Z,0.13
2023-01-29T06:08:27.959Z,0.13
2023-01-29T06:09:27.941Z,0.15
2023-01-29T06:10:27.929Z,0.15
2023-01-29T06:11:27.909Z,0.12
2023-01-29T06:12:27.924Z,0.13
2023-01-29T06:13:27.888Z,0.13
2023-01-29T06:14:27.893Z,0.13
2023-01-29T06:15:27.861Z,0.13
2023-01-29T06:16:27.915Z,0.12
2023-01-29T06:17:27.852Z,0.12
2023-01-29T06:18:27.842Z,0.09
2023-01-29T06:19:27.826Z,0.09
2023-01-29T06:20:27.807Z,0.10
2023-01-29T06:21:27.776Z,0.13
2023-01-29T06:22:27.795Z,0.15
2023-01-29T06:23:27.766Z,0.18
2023-01-29T06:24:27.780Z,0.16
2023-01-29T06:25:27.735Z,0.18
2023-01-29T06:26:27.725Z,0.16
2023-01-29T06:27:27.716Z,0.16
2023-01-29T06:28:27.697Z,0.18
2023-01-29T06:29:27.692Z,0.16
2023-01-29T06:30:27.674Z,0.18
2023-01-29T06:31:38.199Z,0.20
2023-01-29T06:32:28.712Z,0.21
2023-01-29T06:33:27.646Z,0.23
2023-01-29T06:34:27.628Z,0.23
2023-01-29T06:35:27.614Z,0.24
2023-01-29T06:36:27.625Z,0.23
2023-01-29T06:37:27.596Z,0.21
2023-01-29T06:38:27.582Z,0.18
2023-01-29T06:39:27.552Z,0.20
2023-01-29T06:40:27.541Z,0.20
2023-01-29T06:41:27.531Z,0.20
2023-01-29T06:42:27.538Z,0.18
2023-01-29T06:43:27.503Z,0.20
2023-01-29T06:44:27.504Z,0.23
2023-01-29T06:45:27.493Z,0.23
2023-01-29T06:46:27.482Z,0.24
2023-01-29T06:47:27.706Z,0.25
2023-01-29T06:48:27.441Z,0.28
2023-01-29T06:49:27.429Z,0.25
2023-01-29T06:50:27.421Z,0.27
2023-01-29T06:51:27.399Z,0.27
2023-01-29T06:52:27.400Z,0.25
2023-01-29T06:53:27.369Z,0.24
2023-01-29T06:54:27.372Z,0.25
2023-01-29T06:55:27.348Z,0.25
2023-01-29T06:56:27.359Z,0.27
2023-01-29T06:57:27.351Z,0.28
2023-01-29T06:58:27.316Z,0.27
2023-01-29T06:59:27.311Z,0.25
2023-01-29T07:00:27.287Z,0.28
2023-01-29T07:01:35.573Z,0.27
2023-01-29T07:02:28.346Z,0.30
2023-01-29T07:03:27.246Z,0.31
2023-01-29T07:04:27.236Z,0.31
2023-01-29T07:05:27.230Z,0.30
2023-01-29T07:06:27.214Z,0.28
2023-01-29T07:07:27.215Z,0.28
2023-01-29T07:08:27.184Z,0.30
2023-01-29T07:09:27.165Z,0.30
2023-01-29T07:10:27.163Z,0.31
2023-01-29T07:11:27.144Z,0.33
2023-01-29T07:12:27.155Z,0.33
2023-01-29T07:13:27.127Z,0.34
2023-01-29T07:14:27.114Z,0.38
2023-01-29T07:15:27.113Z,0.38
2023-01-29T07:16:27.197Z,0.38
2023-01-29T07:17:27.084Z,0.38
2023-01-29T07:18:27.053Z,0.36
2023-01-29T07:19:27.032Z,0.36
2023-01-29T07:20:27.032Z,0.36
2023-01-29T07:21:27.027Z,0.36
2023-01-29T07:22:27.027Z,0.38
2023-01-29T07:23:26.990Z,0.38
2023-01-29T07:24:27.037Z,0.36
2023-01-29T07:25:26.964Z,0.34
2023-01-29T07:26:26.962Z,0.34
2023-01-29T07:27:26.952Z,0.31
2023-01-29T07:28:26.933Z,0.31
2023-01-29T07:29:26.910Z,0.31
2023-01-29T07:30:26.907Z,0.31
2023-01-29T07:31:27.017Z,0.31
2023-01-29T07:32:26.892Z,0.33
2023-01-29T07:33:26.873Z,0.33
2023-01-29T07:34:26.853Z,0.33
2023-01-29T07:35:26.830Z,0.33
2023-01-29T07:36:26.828Z,0.33
2023-01-29T07:37:26.825Z,0.34
2023-01-29T07:38:26.811Z,0.36
2023-01-29T07:39:26.782Z,0.38
2023-01-29T07:40:26.778Z,0.36
2023-01-29T07:41:26.757Z,0.38
2023-01-29T07:42:26.769Z,0.36
2023-01-29T07:43:26.745Z,0.36
2023-01-29T07:44:26.726Z,0.39
2023-01-29T07:45:26.708Z,0.41
2023-01-29T07:46:26.709Z,0.42
2023-01-29T07:47:26.701Z,0.43
2023-01-29T07:48:26.666Z,0.43
2023-01-29T07:49:26.690Z,0.42
2023-01-29T07:50:26.654Z,0.42
2023-01-29T07:51:26.650Z,0.43
2023-01-29T07:52:26.646Z,0.43
2023-01-29T07:53:26.602Z,0.43
2023-01-29T07:54:26.595Z,0.43
2023-01-29T07:55:26.573Z,0.43
2023-01-29T07:56:26.565Z,0.43
2023-01-29T07:57:26.570Z,0.42
2023-01-29T07:58:26.543Z,0.41
2023-01-29T07:59:26.523Z,0.41
2023-01-29T08:00:26.526Z,0.43
2023-01-29T08:01:26.606Z,0.45
2023-01-29T08:02:26.552Z,0.48
2023-01-29T08:03:26.485Z,0.48
2023-01-29T08:04:26.470Z,0.51
2023-01-29T08:05:26.459Z,0.51
2023-01-29T08:06:26.457Z,0.51
2023-01-29T08:07:26.453Z,0.53
2023-01-29T08:08:26.427Z,0.52
2023-01-29T08:09:26.401Z,0.48
2023-01-29T08:10:26.402Z,0.48
2023-01-29T08:11:26.382Z,0.46
2023-01-29T08:12:26.391Z,0.45
2023-01-29T08:13:26.349Z,0.46
2023-01-29T08:14:26.339Z,0.46
2023-01-29T08:15:26.323Z,0.46
2023-01-29T08:16:26.351Z,0.46
2023-01-29T08:17:26.311Z,0.46
2023-01-29T08:18:26.291Z,0.48
2023-01-29T08:19:26.273Z,0.51
2023-01-29T08:20:26.257Z,0.57
2023-01-29T08:21:26.259Z,0.57
2023-01-29T08:22:26.249Z,0.62
2023-01-29T08:23:26.229Z,0.65
2023-01-29T08:24:35.949Z,0.64
2023-01-29T08:25:27.621Z,0.64
2023-01-29T08:26:26.202Z,0.61
2023-01-29T08:27:26.192Z,0.65
2023-01-29T08:28:26.159Z,0.65
2023-01-29T08:29:26.145Z,0.62
2023-01-29T08:30:26.153Z,0.61
2023-01-29T08:31:26.146Z,0.61
2023-01-29T08:32:26.124Z,0.64
2023-01-29T08:33:38.067Z,0.64
2023-01-29T08:34:27.075Z,0.65
2023-01-29T08:35:26.079Z,0.67
2023-01-29T08:36:26.062Z,0.65
2023-01-29T08:37:26.066Z,0.65
2023-01-29T08:38:26.036Z,0.65
2023-01-29T08:39:26.023Z,0.67
2023-01-29T08:40:26.007Z,0.70
2023-01-29T08:41:25.997Z,0.65
2023-01-29T08:42:25.993Z,0.64
2023-01-29T08:43:25.981Z,0.60
2023-01-29T08:44:25.952Z,0.60
2023-01-29T08:45:25.972Z,0.60
2023-01-29T08:46:25.922Z,0.57
2023-01-29T08:47:27.445Z,0.60
2023-01-29T08:48:25.912Z,0.64
2023-01-29T08:49:25.893Z,0.65
2023-01-29T08:50:25.922Z,0.68
2023-01-29T08:51:25.870Z,0.68
2023-01-29T08:52:25.860Z,0.71
2023-01-29T08:53:25.841Z,0.75
2023-01-29T08:54:25.820Z,0.75
2023-01-29T08:55:25.819Z,0.76
2023-01-29T08:56:25.799Z,0.75
2023-01-29T08:57:25.800Z,0.75
2023-01-29T08:58:25.774Z,0.78
2023-01-29T08:59:25.763Z,0.80
2023-01-29T09:00:25.844Z,0.82
2023-01-29T09:01:25.769Z,0.79
2023-01-29T09:02:25.858Z,0.78
2023-01-29T09:03:25.715Z,0.80
2023-01-29T09:04:25.727Z,0.82
2023-01-29T09:05:25.687Z,0.80
2023-01-29T09:06:25.667Z,0.82
2023-01-29T09:07:25.677Z,0.85
2023-01-29T09:08:25.646Z,0.92
2023-01-29T09:09:25.639Z,0.96
2023-01-29T09:10:25.620Z,0.97
2023-01-29T09:11:25.614Z,0.94
2023-01-29T09:12:25.605Z,0.92
2023-01-29T09:13:25.586Z,0.85
2023-01-29T09:14:25.564Z,0.83
2023-01-29T09:15:25.581Z,0.83
2023-01-29T09:16:25.567Z,0.85
2023-01-29T09:17:25.557Z,0.85
2023-01-29T09:18:25.515Z,0.90
2023-01-29T09:19:25.504Z,0.89
2023-01-29T09:20:25.495Z,0.90
2023-01-29T09:21:25.484Z,0.85
2023-01-29T09:22:25.471Z,0.86
2023-01-29T09:23:25.464Z,0.86
2023-01-29T09:24:25.445Z,0.88
2023-01-29T09:25:25.431Z,0.94
2023-01-29T09:26:25.446Z,0.96
2023-01-29T09:27:25.403Z,0.92
2023-01-29T09:28:25.427Z,0.92
2023-01-29T09:29:25.382Z,0.96
2023-01-29T09:30:25.361Z,0.97
2023-01-29T09:31:25.487Z,1.01
2023-01-29T09:32:55.315Z,1.01
2023-01-29T09:33:26.335Z,1.01
2023-01-29T09:34:25.326Z,1.03
2023-01-29T09:35:25.290Z,1.00
2023-01-29T09:36:25.299Z,1.01
2023-01-29T09:37:25.270Z,1.01
2023-01-29T09:38:25.270Z,1.01
2023-01-29T09:39:25.248Z,1.01
2023-01-29T09:40:25.239Z,1.08
2023-01-29T09:41:25.218Z,1.07
2023-01-29T09:42:25.208Z,1.06
2023-01-29T09:43:25.238Z,1.04
2023-01-29T09:44:25.182Z,1.10
2023-01-29T09:45:25.166Z,1.07
2023-01-29T09:46:25.198Z,1.08
2023-01-29T09:47:25.153Z,1.14
2023-01-29T09:48:25.211Z,1.15
2023-01-29T09:49:25.118Z,1.10
2023-01-29T09:50:25.124Z,1.12
2023-01-29T09:51:25.086Z,1.10
2023-01-29T09:52:25.087Z,1.18
2023-01-29T09:53:25.084Z,1.21
2023-01-29T09:54:25.055Z,1.25
2023-01-29T09:55:25.065Z,1.28
2023-01-29T09:56:25.034Z,1.33
2023-01-29T09:57:25.016Z,1.34
2023-01-29T09:58:25.018Z,1.36
2023-01-29T09:59:25.000Z,1.34
2023-01-29T10:00:24.983Z,1.40
2023-01-29T10:01:25.033Z,1.43
2023-01-29T10:02:24.999Z,1.47
2023-01-29T10:03:24.959Z,1.44
2023-01-29T10:04:25.068Z,1.39
2023-01-29T10:05:24.910Z,1.34
2023-01-29T10:06:24.918Z,1.32
2023-01-29T10:07:24.882Z,1.29
2023-01-29T10:08:24.881Z,1.26
2023-01-29T10:09:24.883Z,1.26
2023-01-29T10:10:24.853Z,1.26
2023-01-29T10:11:24.838Z,1.32
2023-01-29T10:12:24.831Z,1.33
2023-01-29T10:13:24.810Z,1.37
2023-01-29T10:14:24.793Z,1.40
2023-01-29T10:15:24.784Z,1.36
2023-01-29T10:16:24.768Z,1.33
2023-01-29T10:17:24.761Z,1.32
2023-01-29T10:18:24.761Z,1.26
2023-01-29T10:19:24.744Z,1.26
2023-01-29T10:20:24.730Z,1.28
2023-01-29T10:21:24.709Z,1.28
2023-01-29T10:22:24.697Z,1.32
2023-01-29T10:23:24.690Z,1.32
2023-01-29T10:24:24.678Z,1.32
2023-01-29T10:25:24.659Z,1.32
2023-01-29T10:26:24.714Z,1.34
2023-01-29T10:27:24.630Z,1.34
2023-01-29T10:28:24.638Z,1.37
2023-01-29T10:29:24.613Z,1.42
2023-01-29T10:30:24.596Z,1.42
2023-01-29T10:31:24.719Z,1.44
2023-01-29T10:32:24.565Z,1.42
2023-01-29T10:33:24.558Z,1.39
2023-01-29T10:34:24.537Z,1.37
2023-01-29T10:35:24.531Z,1.39
2023-01-29T10:36:24.516Z,1.39
2023-01-29T10:37:24.513Z,1.40
2023-01-29T10:38:24.562Z,1.43
2023-01-29T10:39:24.513Z,1.40
2023-01-29T10:40:24.514Z,1.36
2023-01-29T10:41:24.499Z,1.32
2023-01-29T10:42:24.477Z,1.32
2023-01-29T10:43:24.444Z,1.32
2023-01-29T10:44:24.442Z,1.29
2023-01-29T10:45:24.392Z,1.29
2023-01-29T10:46:24.417Z,1.26
2023-01-29T10:47:24.540Z,1.25
2023-01-29T10:48:24.372Z,1.33
2023-01-29T10:49:24.360Z,1.32
2023-01-29T10:50:24.351Z,1.39
2023-01-29T10:51:24.312Z,1.39
2023-01-29T10:52:24.319Z,1.40
2023-01-29T10:53:24.425Z,1.42
2023-01-29T10:54:24.402Z,1.43
2023-01-29T10:55:24.270Z,1.43
2023-01-29T10:56:24.254Z,1.43
2023-01-29T10:57:24.244Z,1.46
2023-01-29T10:58:24.335Z,1.46
2023-01-29T10:59:24.365Z,1.47
2023-01-29T11:00:24.273Z,1.44
2023-01-29T11:01:24.296Z,1.46
2023-01-29T11:02:24.213Z,1.44
2023-01-29T11:03:28.783Z,1.43
2023-01-29T11:04:25.170Z,1.44
2023-01-29T11:05:24.186Z,1.44
2023-01-29T11:06:24.133Z,1.44
2023-01-29T11:07:24.118Z,1.44
2023-01-29T11:08:24.112Z,1.44
2023-01-29T11:09:24.110Z,1.43
2023-01-29T11:10:24.165Z,1.44
2023-01-29T11:11:24.058Z,1.46
2023-01-29T11:12:24.132Z,1.46
2023-01-29T11:13:24.080Z,1.51
2023-01-29T11:14:24.042Z,1.51
2023-01-29T11:15:24.006Z,1.55
2023-01-29T11:16:24.012Z,1.54
2023-01-29T11:17:24.049Z,1.52
2023-01-29T11:18:23.997Z,1.58
2023-01-29T11:19:23.958Z,1.60
2023-01-29T11:20:24.003Z,1.58
2023-01-29T11:21:24.029Z,1.62
2023-01-29T11:22:23.917Z,1.68
2023-01-29T11:23:23.953Z,1.69
2023-01-29T11:24:23.910Z,1.72
2023-01-29T11:25:23.876Z,1.71
2023-01-29T11:26:24.042Z,1.72
2023-01-29T11:27:23.883Z,1.75
2023-01-29T11:28:23.877Z,1.73
2023-01-29T11:29:23.863Z,1.73
2023-01-29T11:30:23.824Z,1.73
2023-01-29T11:31:23.911Z,1.76
2023-01-29T11:32:23.802Z,1.76
2023-01-29T11:33:23.830Z,1.78
2023-01-29T11:34:23.781Z,1.76
2023-01-29T11:35:23.759Z,1.76
2023-01-29T11:36:23.743Z,1.73
2023-01-29T11:37:23.732Z,1.76
2023-01-29T11:38:23.762Z,1.72
2023-01-29T11:39:23.723Z,1.68
2023-01-29T11:40:23.690Z,1.68
2023-01-29T11:41:23.713Z,1.65
2023-01-29T11:42:23.719Z,1.69
2023-01-29T11:43:23.671Z,1.69
2023-01-29T11:44:23.729Z,1.71
2023-01-29T11:45:23.713Z,1.72
2023-01-29T11:46:23.676Z,1.71
2023-01-29T11:47:23.664Z,1.71
2023-01-29T11:48:23.616Z,1.73
2023-01-29T11:49:23.656Z,1.78
2023-01-29T11:50:23.608Z,1.80
2023-01-29T11:51:23.582Z,1.80
2023-01-29T11:52:23.562Z,1.83
2023-01-29T11:53:23.549Z,1.85
2023-01-29T11:54:23.586Z,1.85
2023-01-29T11:55:23.576Z,1.80
2023-01-29T11:56:23.560Z,1.83
2023-01-29T11:57:23.529Z,1.85
2023-01-29T11:58:23.567Z,1.90
2023-01-29T11:59:23.484Z,1.91
2023-01-29T12:00:23.504Z,1.87
2023-01-29T12:01:23.449Z,1.85
2023-01-29T12:02:23.437Z,1.87
2023-01-29T12:03:25.075Z,1.90
2023-01-29T12:04:23.512Z,1.94
2023-01-29T12:05:23.413Z,1.91
2023-01-29T12:06:23.402Z,1.93
2023-01-29T12:07:23.393Z,1.94
2023-01-29T12:08:23.390Z,1.97
2023-01-29T12:09:23.401Z,1.98
2023-01-29T12:10:23.382Z,1.99
2023-01-29T12:11:23.334Z,1.94
2023-01-29T12:12:23.345Z,2.01
2023-01-29T12:13:23.326Z,2.02
2023-01-29T12:14:23.421Z,1.99
2023-01-29T12:15:23.312Z,1.94
2023-01-29T12:16:24.323Z,1.94
2023-01-29T12:17:23.311Z,1.93
2023-01-29T12:18:23.245Z,1.93
2023-01-29T12:19:23.188Z,1.98
2023-01-29T12:20:23.183Z,2.02
2023-01-29T12:21:23.224Z,2.01
2023-01-29T12:22:23.206Z,2.01
2023-01-29T12:23:23.194Z,1.99
2023-01-29T12:24:23.219Z,1.99
2023-01-29T12:25:23.196Z,1.99
2023-01-29T12:26:23.193Z,1.99
2023-01-29T12:27:23.155Z,1.99
2023-01-29T12:28:23.163Z,2.02
2023-01-29T12:29:23.104Z,1.99
2023-01-29T12:30:23.109Z,1.94
2023-01-29T12:31:23.118Z,1.98
2023-01-29T12:32:23.081Z,1.97
2023-01-29T12:33:23.106Z,1.98
2023-01-29T12:34:23.052Z,2.01
2023-01-29T12:35:23.031Z,2.02
2023-01-29T12:36:23.029Z,2.04
2023-01-29T12:37:23.010Z,2.06
2023-01-29T12:38:22.944Z,2.01
2023-01-29T12:39:22.932Z,2.02
2023-01-29T12:40:22.961Z,2.02
2023-01-29T12:41:22.983Z,2.04
2023-01-29T12:42:22.979Z,2.08
2023-01-29T12:43:22.942Z,2.10
2023-01-29T12:44:22.931Z,2.16
2023-01-29T12:45:22.934Z,2.17
2023-01-29T12:46:22.977Z,2.20
2023-01-29T12:47:22.871Z,2.17
2023-01-29T12:48:22.857Z,2.13
2023-01-29T12:49:22.849Z,2.13
2023-01-29T12:50:22.852Z,2.10
2023-01-29T12:51:22.859Z,2.12
2023-01-29T12:52:22.790Z,2.13
2023-01-29T12:53:22.839Z,2.15
2023-01-29T12:54:22.779Z,2.16
2023-01-29T12:55:22.823Z,2.16
2023-01-29T12:56:22.730Z,2.15
2023-01-29T12:57:22.764Z,2.17
2023-01-29T12:58:22.717Z,2.13
2023-01-29T12:59:22.699Z,2.13
2023-01-29T13:00:22.739Z,2.17
2023-01-29T13:01:22.725Z,2.17
2023-01-29T13:02:22.673Z,2.17
2023-01-29T13:03:22.748Z,2.19
2023-01-29T13:04:22.664Z,2.19
2023-01-29T13:05:22.675Z,2.19
2023-01-29T13:06:22.632Z,2.19
2023-01-29T13:07:22.633Z,2.15
2023-01-29T13:08:22.643Z,2.16
2023-01-29T13:09:22.652Z,2.19
2023-01-29T13:10:22.651Z,2.19
2023-01-29T13:11:22.564Z,2.17
2023-01-29T13:12:22.541Z,2.16
2023-01-29T13:13:22.524Z,2.17
2023-01-29T13:14:22.512Z,2.17
2023-01-29T13:15:22.564Z,2.22
2023-01-29T13:16:22.468Z,2.23
2023-01-29T13:17:22.430Z,2.27
2023-01-29T13:18:22.410Z,2.31
2023-01-29T13:19:22.528Z,2.30
2023-01-29T13:20:22.658Z,2.26
2023-01-29T13:21:22.427Z,2.27
2023-01-29T13:22:22.484Z,2.28
2023-01-29T13:23:22.406Z,2.23
2023-01-29T13:24:22.417Z,2.20
2023-01-29T13:25:22.660Z,2.16
2023-01-29T13:26:22.356Z,2.16
2023-01-29T13:27:22.375Z,2.19
2023-01-29T13:28:22.321Z,2.26
2023-01-29T13:29:22.359Z,2.28
2023-01-29T13:30:22.339Z,2.30
2023-01-29T13:31:22.329Z,2.30
2023-01-29T13:32:22.313Z,2.30
2023-01-29T13:33:22.257Z,2.31
2023-01-29T13:34:22.255Z,2.28
2023-01-29T13:35:22.278Z,2.27
2023-01-29T13:36:22.241Z,2.26
2023-01-29T13:37:22.229Z,2.23
2023-01-29T13:38:22.190Z,2.20
2023-01-29T13:39:22.248Z,2.19
2023-01-29T13:40:22.197Z,2.17
2023-01-29T13:41:22.200Z,2.17
2023-01-29T13:42:22.186Z,2.17
2023-01-29T13:43:22.118Z,2.13
2023-01-29T13:44:22.147Z,2.15
2023-01-29T13:45:22.145Z,2.19
2023-01-29T13:46:22.168Z,2.17
2023-01-29T13:47:22.120Z,2.20
2023-01-29T13:48:22.097Z,2.19
2023-01-29T13:49:22.084Z,2.19
2023-01-29T13:50:23.122Z,2.20
2023-01-29T13:51:22.223Z,2.23
2023-01-29T13:52:22.035Z,2.22
2023-01-29T13:53:22.056Z,2.23
2023-01-29T13:54:22.015Z,2.19
2023-01-29T13:55:22.005Z,2.16
2023-01-29T13:56:22.005Z,2.16
2023-01-29T13:57:21.974Z,2.16
2023-01-29T13:58:22.014Z,2.16
2023-01-29T13:59:21.921Z,2.16
2023-01-29T14:00:21.943Z,2.17
2023-01-29T14:01:21.979Z,2.19
2023-01-29T14:02:22.032Z,2.19
2023-01-29T14:03:21.922Z,2.20
2023-01-29T14:04:21.918Z,2.19
2023-01-29T14:05:22.891Z,2.19
2023-01-29T14:06:21.872Z,2.19
2023-01-29T14:07:21.831Z,2.17
2023-01-29T14:08:21.831Z,2.17
2023-01-29T14:09:21.825Z,2.19
2023-01-29T14:10:21.795Z,2.22
2023-01-29T14:11:21.799Z,2.22
2023-01-29T14:12:21.787Z,2.23
2023-01-29T14:13:21.800Z,2.23
2023-01-29T14:14:21.709Z,2.22
2023-01-29T14:15:22.406Z,2.23
2023-01-29T14:16:21.764Z,2.22
2023-01-29T14:17:21.718Z,2.20
2023-01-29T14:18:21.760Z,2.20
2023-01-29T14:19:21.761Z,2.22
2023-01-29T14:20:22.326Z,2.23
2023-01-29T14:21:21.693Z,2.22
2023-01-29T14:22:21.615Z,2.22
2023-01-29T14:23:21.567Z,2.23
2023-01-29T14:24:28.613Z,2.17
2023-01-29T14:25:21.537Z,2.20
2023-01-29T14:26:21.581Z,2.19
2023-01-29T14:27:21.519Z,2.19
2023-01-29T14:28:21.518Z,2.20
2023-01-29T14:29:32.819Z,2.17
2023-01-29T14:30:22.489Z,2.17
2023-01-29T14:31:21.555Z,2.16
2023-01-29T14:32:21.457Z,2.15
2023-01-29T14:33:21.444Z,2.15
2023-01-29T14:34:21.439Z,2.15
2023-01-29T14:35:21.418Z,2.15
2023-01-29T14:36:21.417Z,2.16
2023-01-29T14:37:21.408Z,2.15
2023-01-29T14:38:21.375Z,2.15
2023-01-29T14:39:21.363Z,2.16
2023-01-29T14:40:21.352Z,2.15
2023-01-29T14:41:21.343Z,2.15
2023-01-29T14:42:21.338Z,2.13
2023-01-29T14:43:21.303Z,2.13
2023-01-29T14:44:21.303Z,2.13
2023-01-29T14:45:21.285Z,2.15
2023-01-29T14:46:21.314Z,2.15
2023-01-29T14:47:21.254Z,2.15
2023-01-29T14:48:21.255Z,2.16
2023-01-29T14:49:21.232Z,2.16
2023-01-29T14:50:21.224Z,2.15
2023-01-29T14:51:21.222Z,2.15
2023-01-29T14:52:21.193Z,2.16
2023-01-29T14:53:21.187Z,2.16
2023-01-29T14:54:21.171Z,2.15
2023-01-29T14:55:21.155Z,2.15
2023-01-29T14:56:21.158Z,2.13
2023-01-29T14:57:21.129Z,2.13
2023-01-29T14:58:21.120Z,2.10
2023-01-29T14:59:21.100Z,2.12
2023-01-29T15:00:21.091Z,2.12
2023-01-29T15:01:21.225Z,2.12
2023-01-29T15:02:21.106Z,2.10
2023-01-29T15:03:21.055Z,2.10
2023-01-29T15:04:21.081Z,2.10
2023-01-29T15:05:21.044Z,2.12
2023-01-29T15:06:21.064Z,2.12
2023-01-29T15:07:21.005Z,2.15
2023-01-29T15:08:20.988Z,2.13
2023-01-29T15:09:22.053Z,2.10
2023-01-29T15:10:22.988Z,2.09
2023-01-29T15:11:20.977Z,2.09
2023-01-29T15:12:20.946Z,2.10
2023-01-29T15:13:20.927Z,2.12
2023-01-29T15:14:20.919Z,2.13
2023-01-29T15:15:20.887Z,2.16
2023-01-29T15:16:20.906Z,2.15
2023-01-29T15:17:20.867Z,2.12
2023-01-29T15:18:20.859Z,2.12
2023-01-29T15:19:20.836Z,2.09
2023-01-29T15:20:20.835Z,2.13
2023-01-29T15:21:20.824Z,2.13
2023-01-29T15:22:20.849Z,2.16
2023-01-29T15:23:20.786Z,2.15
2023-01-29T15:24:20.785Z,2.16
2023-01-29T15:25:20.756Z,2.16
2023-01-29T15:26:20.779Z,2.12
2023-01-29T15:27:20.747Z,2.12
2023-01-29T15:28:20.734Z,2.12
2023-01-29T15:29:20.717Z,2.13
2023-01-29T15:30:20.703Z,2.10
2023-01-29T15:31:20.797Z,2.12
2023-01-29T15:32:20.684Z,2.12
2023-01-29T15:33:20.664Z,2.12
2023-01-29T15:34:20.652Z,2.12
2023-01-29T15:35:20.631Z,2.13
2023-01-29T15:36:20.622Z,2.13
2023-01-29T15:37:20.622Z,2.15
2023-01-29T15:38:20.604Z,2.15
2023-01-29T15:39:20.581Z,2.15
2023-01-29T15:40:20.575Z,2.13
2023-01-29T15:41:20.564Z,2.15
2023-01-29T15:42:20.555Z,2.13
2023-01-29T15:43:20.532Z,2.15
2023-01-29T15:44:20.520Z,2.13
2023-01-29T15:45:20.499Z,2.13
2023-01-29T15:46:20.489Z,2.13
2023-01-29T15:47:20.547Z,2.13
2023-01-29T15:48:20.480Z,2.12
2023-01-29T15:49:20.448Z,2.10
2023-01-29T15:50:20.450Z,2.09
2023-01-29T15:51:20.428Z,2.10
2023-01-29T15:52:20.433Z,2.12
2023-01-29T15:53:20.415Z,2.13
2023-01-29T15:54:20.405Z,2.12
2023-01-29T15:55:20.376Z,2.12
2023-01-29T15:56:20.368Z,2.09
2023-01-29T15:57:20.367Z,2.09
2023-01-29T15:58:20.336Z,2.09
2023-01-29T15:59:20.324Z,2.08
2023-01-29T16:00:20.316Z,2.06
2023-01-29T16:01:20.341Z,2.10
2023-01-29T16:02:20.366Z,2.10
2023-01-29T16:03:20.276Z,2.13
2023-01-29T16:04:20.266Z,2.13
2023-01-29T16:05:20.385Z,2.13
2023-01-29T16:06:20.236Z,2.15
2023-01-29T16:07:20.234Z,2.15
2023-01-29T16:08:20.225Z,2.15
2023-01-29T16:09:20.224Z,2.15
2023-01-29T16:10:20.184Z,2.13
2023-01-29T16:11:20.164Z,2.15
2023-01-29T16:12:20.168Z,2.16
2023-01-29T16:13:20.144Z,2.15
2023-01-29T16:14:20.174Z,2.13
2023-01-29T16:15:20.116Z,2.15
2023-01-29T16:16:20.280Z,2.16
2023-01-29T16:17:20.104Z,2.16
2023-01-29T16:18:20.072Z,2.16
2023-01-29T16:19:20.061Z,2.15
2023-01-29T16:20:20.054Z,2.15
2023-01-29T16:21:20.074Z,2.15
2023-01-29T16:22:20.043Z,2.13
2023-01-29T16:23:20.017Z,2.15
2023-01-29T16:24:20.001Z,2.17
2023-01-29T16:25:20.465Z,2.17
2023-01-29T16:26:19.991Z,2.17
2023-01-29T16:27:19.980Z,2.16
2023-01-29T16:28:19.953Z,2.16
2023-01-29T16:29:19.939Z,2.15
2023-01-29T16:30:19.932Z,2.16
2023-01-29T16:31:20.020Z,2.17
2023-01-29T16:32:19.991Z,2.17
2023-01-29T16:33:19.888Z,2.17
2023-01-29T16:34:19.883Z,2.17
2023-01-29T16:35:20.097Z,2.17
2023-01-29T16:36:19.839Z,2.16
2023-01-29T16:37:19.855Z,2.17
2023-01-29T16:38:19.819Z,2.16
2023-01-29T16:39:19.800Z,2.16
2023-01-29T16:40:19.795Z,2.16
2023-01-29T16:41:19.780Z,2.19
2023-01-29T16:42:19.793Z,2.19
2023-01-29T16:43:19.768Z,2.16
2023-01-29T16:44:19.755Z,2.16
2023-01-29T16:45:19.897Z,2.17
2023-01-29T16:46:19.751Z,2.15
2023-01-29T16:47:19.712Z,2.15
2023-01-29T16:48:19.707Z,2.13
2023-01-29T16:49:19.698Z,2.15
2023-01-29T16:50:19.667Z,2.15
2023-01-29T16:51:19.646Z,2.16
2023-01-29T16:52:19.643Z,2.16
2023-01-29T16:53:19.652Z,2.17
2023-01-29T16:54:19.613Z,2.16
2023-01-29T16:55:20.292Z,2.17
2023-01-29T16:56:19.584Z,2.16
2023-01-29T16:57:19.563Z,2.17
2023-01-29T16:58:19.615Z,2.16
2023-01-29T16:59:19.553Z,2.16
2023-01-29T17:00:19.536Z,2.17
2023-01-29T17:01:19.515Z,2.19
2023-01-29T17:02:19.522Z,2.19
2023-01-29T17:03:19.501Z,2.19
2023-01-29T17:04:19.501Z,2.17
2023-01-29T17:05:19.955Z,2.20
2023-01-29T17:06:19.451Z,2.20
2023-01-29T17:07:19.439Z,2.19
2023-01-29T17:08:19.430Z,2.22
2023-01-29T17:09:19.412Z,2.22
2023-01-29T17:10:19.421Z,2.20
2023-01-29T17:11:19.381Z,2.22
2023-01-29T17:12:19.370Z,2.20
2023-01-29T17:13:19.383Z,2.20
2023-01-29T17:14:19.351Z,2.22
2023-01-29T17:15:19.569Z,2.26
2023-01-29T17:16:19.371Z,2.26
2023-01-29T17:17:19.298Z,2.23
2023-01-29T17:18:19.310Z,2.23
2023-01-29T17:19:19.284Z,2.26
2023-01-29T17:20:19.284Z,2.26
2023-01-29T17:21:19.263Z,2.23
2023-01-29T17:22:19.249Z,2.23
2023-01-29T17:23:19.247Z,2.26
2023-01-29T17:24:20.100Z,2.27
2023-01-29T17:25:19.752Z,2.26
2023-01-29T17:26:19.193Z,2.26
2023-01-29T17:27:19.176Z,2.26
2023-01-29T17:28:19.167Z,2.23
2023-01-29T17:29:19.157Z,2.26
2023-01-29T17:30:19.179Z,2.27
2023-01-29T17:31:19.334Z,2.27
2023-01-29T17:32:19.109Z,2.26
2023-01-29T17:33:19.115Z,2.26
2023-01-29T17:34:19.085Z,2.23
2023-01-29T17:35:19.363Z,2.22
2023-01-29T17:36:19.094Z,2.22
2023-01-29T17:37:19.074Z,2.23
2023-01-29T17:38:25.991Z,2.26
2023-01-29T17:39:20.024Z,2.23
2023-01-29T17:40:19.020Z,2.26
2023-01-29T17:41:19.004Z,2.28
2023-01-29T17:42:18.994Z,2.28
2023-01-29T17:43:19.002Z,2.31
2023-01-29T17:44:18.960Z,2.31
2023-01-29T17:45:19.427Z,2.31
2023-01-29T17:46:18.938Z,2.30
2023-01-29T17:47:18.922Z,2.31
2023-01-29T17:48:18.916Z,2.31
2023-01-29T17:49:18.896Z,2.33
2023-01-29T17:50:18.883Z,2.33
2023-01-29T17:51:18.864Z,2.33
2023-01-29T17:52:18.851Z,2.33
2023-01-29T17:53:18.842Z,2.33
2023-01-29T17:54:18.834Z,2.33
2023-01-29T17:55:19.018Z,2.33
2023-01-29T17:56:18.816Z,2.34
2023-01-29T17:57:18.794Z,2.35
2023-01-29T17:58:18.789Z,2.34
2023-01-29T17:59:18.771Z,2.35
2023-01-29T18:00:18.763Z,2.34
2023-01-29T18:01:18.728Z,2.37
2023-01-29T18:02:29.042Z,2.37
2023-01-29T18:03:19.731Z,2.35
2023-01-29T18:04:18.755Z,2.37
2023-01-29T18:05:19.086Z,2.37
2023-01-29T18:06:18.670Z,2.37
2023-01-29T18:07:18.657Z,2.37
2023-01-29T18:08:18.691Z,2.38
2023-01-29T18:09:18.637Z,2.41
2023-01-29T18:10:18.630Z,2.41
2023-01-29T18:11:18.607Z,2.41
2023-01-29T18:12:18.619Z,2.41
2023-01-29T18:13:18.595Z,2.44
2023-01-29T18:14:18.570Z,2.46
2023-01-29T18:15:18.890Z,2.48
2023-01-29T18:16:18.711Z,2.48
2023-01-29T18:17:18.526Z,2.49
2023-01-29T18:18:18.526Z,2.49
2023-01-29T18:19:18.505Z,2.49
2023-01-29T18:20:18.509Z,2.51
2023-01-29T18:21:18.481Z,2.52
2023-01-29T18:22:18.472Z,2.53
2023-01-29T18:23:18.492Z,2.53
2023-01-29T18:24:18.444Z,2.53
2023-01-29T18:25:18.775Z,2.55
2023-01-29T18:26:18.483Z,2.53
2023-01-29T18:27:18.412Z,2.53
2023-01-29T18:28:18.439Z,2.56
2023-01-29T18:29:18.383Z,2.55
2023-01-29T18:30:18.367Z,2.56
2023-01-29T18:31:18.375Z,2.58
2023-01-29T18:32:18.344Z,2.55